createdAt,value
2023-01-25T00:02:50.953Z,11.50
2023-01-25T00:05:59.799Z,11.50
2023-01-25T00:09:08.057Z,10.80
2023-01-25T00:12:17.279Z,12.40
2023-01-25T00:15:25.496Z,11.80
2023-01-25T00:18:34.354Z,12.40
2023-01-25T00:21:43.263Z,12.00
2023-01-25T00:24:51.452Z,14.40
2023-01-25T00:28:00.612Z,13.20
2023-01-25T00:32:49.224Z,14.50
2023-01-25T00:35:57.415Z,14.60
2023-01-25T00:39:04.654Z,16.00
2023-01-25T00:42:12.229Z,14.50
2023-01-25T00:45:19.595Z,14.40
2023-01-25T00:48:27.087Z,15.10
2023-01-25T00:51:34.783Z,16.60
2023-01-25T00:54:42.219Z,16.30
2023-01-25T00:57:49.501Z,15.30
2023-01-25T01:00:56.783Z,15.40
2023-01-25T01:04:05.793Z,17.10
2023-01-25T01:07:13.806Z,17.30
2023-01-25T01:10:21.224Z,17.80
2023-01-25T01:13:28.822Z,20.70
2023-01-25T01:16:36.102Z,19.40
2023-01-25T01:19:43.316Z,20.30
2023-01-25T01:22:51.126Z,18.70
2023-01-25T01:25:58.153Z,20.30
2023-01-25T01:29:05.811Z,22.40
2023-01-25T01:32:13.666Z,22.80
2023-01-25T01:35:20.693Z,21.50
2023-01-25T01:38:28.532Z,22.80
2023-01-25T01:41:36.284Z,26.50
2023-01-25T01:44:37.978Z,25.30
2023-01-25T01:47:45.625Z,27.50
2023-01-25T01:50:52.621Z,26.20
2023-01-25T01:54:00.539Z,27.60
2023-01-25T01:57:07.862Z,28.50
2023-01-25T02:00:15.220Z,27.60
2023-01-25T02:03:23.306Z,29.30
2023-01-25T02:06:30.226Z,29.80
2023-01-25T02:09:37.672Z,30.50
2023-01-25T02:12:44.895Z,31.50
2023-01-25T02:15:52.023Z,31.60
2023-01-25T02:18:59.707Z,30.20
2023-01-25T02:22:07.234Z,33.50
2023-01-25T02:25:14.393Z,29.40
2023-01-25T02:28:22.211Z,27.20
2023-01-25T02:31:29.344Z,29.00
2023-01-25T02:34:36.255Z,30.40
2023-01-25T02:37:43.477Z,28.80
2023-01-25T02:40:50.599Z,33.30
2023-01-25T02:43:57.798Z,33.40
2023-01-25T02:47:04.923Z,31.90
2023-01-25T02:50:14.306Z,31.80
2023-01-25T02:53:22.413Z,32.50
2023-01-25T02:56:29.684Z,33.00
2023-01-25T02:59:37.182Z,33.50
2023-01-25T03:02:44.853Z,31.70
2023-01-25T03:05:51.942Z,31.30
2023-01-25T03:08:59.323Z,34.70
2023-01-25T03:12:06.449Z,32.40
2023-01-25T03:15:13.747Z,35.40
2023-01-25T03:18:21.377Z,38.80
2023-01-25T03:21:28.038Z,33.80
2023-01-25T03:24:35.529Z,36.80
2023-01-25T03:27:43.035Z,35.80
2023-01-25T03:30:50.010Z,37.50
2023-01-25T03:33:58.316Z,37.80
2023-01-25T03:37:05.879Z,37.60
2023-01-25T03:40:13.002Z,43.00
2023-01-25T03:43:20.875Z,41.00
2023-01-25T03:46:28.395Z,38.90
2023-01-25T03:49:36.204Z,37.10
2023-01-25T03:52:43.843Z,36.90
2023-01-25T03:55:51.699Z,44.40
2023-01-25T03:58:59.327Z,39.10
2023-01-25T04:02:06.786Z,40.40
2023-01-25T04:05:14.574Z,36.30
2023-01-25T04:08:22.423Z,39.70
2023-01-25T04:11:30.011Z,36.90
2023-01-25T04:14:44.309Z,39.60
2023-01-25T04:17:42.272Z,39.70
2023-01-25T04:20:49.511Z,41.80
2023-01-25T04:23:57.672Z,32.20
2023-01-25T04:27:05.612Z,36.90
2023-01-25T04:30:12.799Z,39.50
2023-01-25T04:33:20.884Z,33.00
2023-01-25T04:36:28.634Z,35.00
2023-01-25T04:39:35.881Z,35.20
2023-01-25T04:42:43.934Z,35.00
2023-01-25T04:45:51.525Z,33.20
2023-01-25T04:48:59.185Z,38.10
2023-01-25T04:52:07.177Z,33.00
2023-01-25T04:55:14.767Z,36.50
2023-01-25T04:58:22.264Z,33.10
2023-01-25T05:01:30.495Z,35.60
2023-01-25T05:04:38.010Z,36.00
2023-01-25T05:07:45.456Z,33.00
2023-01-25T05:10:52.950Z,35.00
2023-01-25T05:14:01.080Z,32.10
2023-01-25T05:17:08.521Z,35.40
2023-01-25T05:20:16.109Z,37.90
2023-01-25T05:23:24.126Z,41.20
2023-01-25T05:26:31.118Z,38.90
2023-01-25T05:29:39.066Z,42.20
2023-01-25T05:32:46.561Z,39.80
2023-01-25T05:35:53.756Z,42.70
2023-01-25T05:39:01.725Z,47.50
2023-01-25T05:42:09.663Z,43.10
2023-01-25T05:45:16.845Z,45.40
2023-01-25T05:48:24.979Z,41.50
2023-01-25T05:51:32.444Z,38.80
2023-01-25T05:54:40.605Z,41.20
2023-01-25T05:57:48.588Z,40.30
2023-01-25T06:00:55.817Z,45.70
2023-01-25T06:04:03.760Z,45.10
2023-01-25T06:07:11.821Z,48.10
2023-01-25T06:10:19.113Z,42.70
2023-01-25T06:13:27.378Z,37.10
2023-01-25T06:16:35.031Z,44.70
2023-01-25T06:19:42.992Z,45.20
2023-01-25T06:22:50.659Z,50.30
2023-01-25T06:25:58.410Z,42.80
2023-01-25T06:29:06.026Z,44.10
2023-01-25T06:32:13.580Z,45.50
2023-01-25T06:35:21.137Z,45.60
2023-01-25T06:38:28.891Z,45.10
2023-01-25T06:41:36.273Z,46.30
2023-01-25T06:44:43.654Z,47.30
2023-01-25T06:47:51.160Z,46.70
2023-01-25T06:50:58.350Z,49.40
2023-01-25T06:54:06.357Z,48.10
2023-01-25T06:57:14.195Z,49.50
2023-01-25T07:00:21.491Z,51.80
2023-01-25T07:03:29.455Z,53.90
2023-01-25T07:06:37.538Z,46.90
2023-01-25T07:09:44.930Z,53.40
2023-01-25T07:12:53.054Z,40.90
2023-01-25T07:16:00.602Z,47.30
2023-01-25T07:19:08.352Z,35.90
2023-01-25T07:22:16.095Z,41.10
2023-01-25T07:25:23.676Z,46.50
2023-01-25T07:28:31.179Z,43.30
2023-01-25T07:31:38.895Z,40.90
2023-01-25T07:34:46.368Z,45.00
2023-01-25T07:37:54.176Z,41.50
2023-01-25T07:41:01.680Z,39.30
2023-01-25T07:44:09.527Z,39.10
2023-01-25T07:47:16.950Z,44.20
2023-01-25T07:50:24.172Z,39.80
2023-01-25T07:53:31.980Z,40.40
2023-01-25T07:56:39.622Z,42.40
2023-01-25T07:59:47.397Z,35.40
2023-01-25T08:02:55.503Z,38.40
2023-01-25T08:06:02.759Z,37.30
2023-01-25T08:09:10.936Z,36.00
2023-01-25T08:12:18.941Z,35.50
2023-01-25T08:15:26.617Z,33.20
2023-01-25T08:18:35.906Z,33.40
2023-01-25T08:21:44.074Z,36.10
2023-01-25T08:24:52.159Z,37.30
2023-01-25T08:27:59.635Z,32.90
2023-01-25T08:31:07.215Z,35.20
2023-01-25T08:34:14.817Z,38.10
2023-01-25T08:37:22.361Z,35.00
2023-01-25T08:40:29.848Z,37.10
2023-01-25T08:43:37.602Z,36.60
2023-01-25T08:46:44.917Z,35.60
2023-01-25T08:49:53.165Z,33.30
2023-01-25T08:53:00.588Z,37.40
2023-01-25T08:56:08.398Z,33.20
2023-01-25T08:59:16.584Z,35.10
2023-01-25T09:02:24.091Z,32.60
2023-01-25T09:05:31.751Z,31.70
2023-01-25T09:08:39.873Z,35.10
2023-01-25T09:11:47.603Z,34.00
2023-01-25T09:14:55.291Z,32.20
2023-01-25T09:18:03.064Z,31.90
2023-01-25T09:21:11.238Z,29.70
2023-01-25T09:24:19.050Z,33.80
2023-01-25T09:27:26.309Z,31.70
2023-01-25T09:30:46.449Z,28.20
2023-01-25T09:33:39.114Z,27.10
2023-01-25T09:36:46.642Z,29.30
2023-01-25T09:39:54.760Z,27.10
2023-01-25T09:43:02.202Z,28.80
2023-01-25T09:46:10.516Z,39.30
2023-01-25T09:49:18.232Z,38.20
2023-01-25T09:52:25.695Z,37.30
2023-01-25T09:55:33.640Z,45.70
2023-01-25T09:58:42.040Z,41.60
2023-01-25T10:01:49.410Z,38.60
2023-01-25T10:04:57.332Z,40.50
2023-01-25T10:08:05.004Z,45.30
2023-01-25T10:11:12.715Z,46.60
2023-01-25T10:14:20.943Z,44.70
2023-01-25T10:17:28.503Z,60.50
2023-01-25T10:20:36.327Z,51.50
2023-01-25T10:23:43.939Z,56.80
2023-01-25T10:26:51.373Z,56.30
2023-01-25T10:29:58.820Z,61.20
2023-01-25T10:33:06.370Z,74.80
2023-01-25T10:36:14.279Z,66.00
2023-01-25T10:39:22.415Z,69.50
2023-01-25T10:42:29.735Z,72.60
2023-01-25T10:45:37.709Z,68.80
2023-01-25T10:48:45.925Z,80.80
2023-01-25T10:51:53.317Z,69.20
2023-01-25T10:55:00.962Z,72.60
2023-01-25T10:58:08.279Z,86.60
2023-01-25T11:01:15.994Z,64.10
2023-01-25T11:04:24.995Z,58.10
2023-01-25T11:07:32.635Z,60.70
2023-01-25T11:10:40.208Z,60.30
2023-01-25T11:13:47.847Z,60.60
2023-01-25T11:16:55.476Z,58.60
2023-01-25T11:20:03.221Z,57.20
2023-01-25T11:23:10.698Z,53.20
2023-01-25T11:26:18.271Z,49.70
2023-01-25T11:29:26.539Z,55.70
2023-01-25T11:32:33.865Z,52.30
2023-01-25T11:35:41.248Z,54.30
2023-01-25T11:38:48.398Z,52.20
2023-01-25T11:41:56.286Z,49.90
2023-01-25T11:45:04.079Z,46.20
2023-01-25T11:48:11.405Z,48.60
2023-01-25T11:51:19.304Z,46.90
2023-01-25T11:54:26.863Z,51.20
2023-01-25T11:57:34.631Z,47.50
2023-01-25T12:00:42.363Z,50.10
2023-01-25T12:03:49.634Z,40.70
2023-01-25T12:06:57.664Z,41.20
2023-01-25T12:10:05.219Z,39.60
2023-01-25T12:13:13.398Z,42.70
2023-01-25T12:16:21.420Z,39.50
2023-01-25T12:19:29.311Z,40.30
2023-01-25T12:22:37.246Z,48.60
2023-01-25T12:25:44.790Z,42.20
2023-01-25T12:28:52.800Z,38.10
2023-01-25T12:32:00.491Z,45.20
2023-01-25T12:35:08.251Z,36.80
2023-01-25T12:38:16.481Z,34.70
2023-01-25T12:41:23.836Z,38.90
2023-01-25T12:44:31.949Z,44.00
2023-01-25T12:47:39.918Z,48.50
2023-01-25T12:50:47.243Z,38.90
2023-01-25T12:53:55.233Z,37.50
2023-01-25T12:57:03.309Z,30.00
2023-01-25T13:00:11.048Z,31.30
2023-01-25T13:03:19.244Z,31.10
2023-01-25T13:06:26.966Z,30.30
2023-01-25T13:09:34.676Z,28.20
2023-01-25T13:12:42.676Z,28.80
2023-01-25T13:15:50.304Z,31.60
2023-01-25T13:18:57.821Z,39.70
2023-01-25T13:22:05.616Z,38.70
2023-01-25T13:25:13.077Z,46.30
2023-01-25T13:28:21.294Z,47.80
2023-01-25T13:31:29.067Z,42.70
2023-01-25T13:34:37.707Z,44.20
2023-01-25T13:37:45.468Z,47.10
2023-01-25T13:40:53.113Z,48.60
2023-01-25T13:44:00.966Z,52.20
2023-01-25T13:47:08.477Z,47.70
2023-01-25T13:50:16.071Z,41.00
2023-01-25T13:53:24.033Z,43.00
2023-01-25T13:56:31.365Z,39.60
2023-01-25T13:59:39.479Z,39.70
2023-01-25T14:02:47.463Z,38.40
2023-01-25T14:05:54.876Z,39.90
2023-01-25T14:09:02.932Z,41.80
2023-01-25T14:12:10.416Z,49.40
2023-01-25T14:15:17.653Z,40.10
2023-01-25T14:18:25.565Z,38.80
2023-01-25T14:21:32.834Z,41.30
2023-01-25T14:24:40.762Z,49.10
2023-01-25T14:27:48.977Z,53.90
2023-01-25T14:30:56.667Z,53.70
2023-01-25T14:34:04.356Z,43.70
2023-01-25T14:37:12.097Z,48.30
2023-01-25T14:40:19.591Z,46.10
2023-01-25T14:43:27.214Z,45.50
2023-01-25T14:46:34.859Z,49.80
2023-01-25T14:49:42.599Z,51.20
2023-01-25T14:52:50.168Z,41.20
2023-01-25T14:55:57.567Z,47.00
2023-01-25T14:59:05.573Z,44.10
2023-01-25T15:02:13.407Z,43.80
2023-01-25T15:05:20.932Z,44.10
2023-01-25T15:08:28.828Z,48.70
2023-01-25T15:11:36.133Z,41.80
2023-01-25T15:14:44.277Z,50.70
2023-01-25T15:17:52.381Z,51.60
2023-01-25T15:20:59.644Z,56.20
2023-01-25T15:24:07.756Z,54.70
2023-01-25T15:27:15.726Z,52.10
2023-01-25T15:30:22.982Z,48.50
2023-01-25T15:33:30.938Z,54.50
2023-01-25T15:36:38.618Z,52.70
2023-01-25T15:39:46.251Z,58.80
2023-01-25T15:42:54.239Z,51.60
2023-01-25T15:46:01.851Z,75.30
2023-01-25T15:49:09.691Z,68.70
2023-01-25T15:52:17.891Z,60.90
2023-01-25T15:55:25.624Z,61.00
2023-01-25T15:58:33.296Z,74.20
2023-01-25T16:01:40.965Z,65.50
2023-01-25T16:04:48.370Z,60.40
2023-01-25T16:07:55.970Z,57.40
2023-01-25T16:11:03.667Z,61.60
2023-01-25T16:14:11.463Z,60.80
2023-01-25T16:17:18.954Z,61.10
2023-01-25T16:20:25.955Z,67.10
2023-01-25T16:23:33.686Z,60.90
2023-01-25T16:26:40.959Z,61.70
2023-01-25T16:29:50.028Z,65.00
2023-01-25T16:32:57.690Z,72.70
2023-01-25T16:36:05.583Z,74.20
2023-01-25T16:39:13.094Z,78.00
2023-01-25T16:42:22.674Z,68.40
2023-01-25T16:45:30.614Z,62.70
2023-01-25T16:48:38.354Z,65.00
2023-01-25T16:51:46.095Z,59.20
2023-01-25T16:54:53.354Z,47.30
2023-01-25T16:58:00.791Z,51.10
2023-01-25T17:01:08.101Z,47.00
2023-01-25T17:04:16.213Z,41.70
2023-01-25T17:07:23.954Z,48.60
2023-01-25T17:10:31.324Z,43.60
2023-01-25T17:13:39.430Z,38.10
2023-01-25T17:16:46.751Z,44.80
2023-01-25T17:19:54.185Z,38.90
2023-01-25T17:23:01.973Z,39.90
2023-01-25T17:26:09.093Z,48.50
2023-01-25T17:29:16.891Z,54.60
2023-01-25T17:32:24.668Z,52.40
2023-01-25T17:35:31.765Z,47.10
2023-01-25T17:38:39.948Z,52.00
2023-01-25T17:41:47.769Z,52.60
2023-01-25T17:44:54.869Z,70.10
2023-01-25T17:48:02.924Z,64.70
2023-01-25T17:51:10.334Z,65.60
2023-01-25T17:54:17.796Z,64.20
2023-01-25T17:57:25.755Z,122.50
2023-01-25T18:00:33.284Z,115.80
2023-01-25T18:03:41.267Z,75.70
2023-01-25T18:06:48.986Z,111.50
2023-01-25T18:09:56.724Z,77.50
2023-01-25T18:13:05.143Z,63.10
2023-01-25T18:16:12.666Z,52.70
2023-01-25T18:19:20.349Z,53.10
2023-01-25T18:22:27.875Z,64.70
2023-01-25T18:25:35.299Z,56.30
2023-01-25T18:28:43.128Z,61.00
2023-01-25T18:31:50.730Z,51.90
2023-01-25T18:34:58.062Z,56.30
2023-01-25T18:38:05.941Z,63.20
2023-01-25T18:41:13.084Z,64.20
2023-01-25T18:44:20.859Z,60.70
2023-01-25T18:47:28.520Z,83.90
2023-01-25T18:50:35.694Z,66.50
2023-01-25T18:53:43.615Z,77.00
2023-01-25T18:56:51.580Z,68.30
2023-01-25T18:59:59.875Z,61.00
2023-01-25T19:03:07.868Z,64.20
2023-01-25T19:06:15.736Z,59.80
2023-01-25T19:09:22.997Z,52.30
2023-01-25T19:12:30.882Z,53.30
2023-01-25T19:15:38.351Z,61.20
2023-01-25T19:18:45.976Z,52.90
2023-01-25T19:21:53.527Z,62.50
2023-01-25T19:25:01.074Z,50.20
2023-01-25T19:28:08.614Z,54.30
2023-01-25T19:31:16.653Z,50.70
2023-01-25T19:34:24.213Z,54.90
2023-01-25T19:37:31.762Z,50.30
2023-01-25T19:40:39.428Z,108.10
2023-01-25T19:43:47.365Z,56.50
2023-01-25T19:46:54.998Z,65.10
2023-01-25T19:50:02.347Z,89.30
2023-01-25T19:53:10.108Z,48.90
2023-01-25T19:56:17.444Z,141.60
2023-01-25T19:59:25.137Z,103.50
2023-01-25T20:02:33.560Z,115.00
2023-01-25T20:05:40.662Z,94.70
2023-01-25T20:08:48.480Z,63.10
2023-01-25T20:11:56.102Z,59.00
2023-01-25T20:15:03.100Z,55.50
2023-01-25T20:18:11.211Z,60.10
2023-01-25T20:21:19.269Z,53.60
2023-01-25T20:24:26.788Z,54.80
2023-01-25T20:27:34.867Z,59.00
2023-01-25T20:30:42.426Z,53.70
2023-01-25T20:33:50.067Z,64.70
2023-01-25T20:36:57.842Z,54.70
2023-01-25T20:40:05.204Z,55.10
2023-01-25T20:43:12.665Z,58.10
2023-01-25T20:46:20.851Z,59.00
2023-01-25T20:49:28.515Z,56.00
2023-01-25T20:52:36.025Z,56.80
2023-01-25T20:55:43.048Z,52.40
2023-01-25T20:58:50.889Z,56.50
2023-01-25T21:01:58.267Z,69.10
2023-01-25T21:05:05.398Z,93.40
2023-01-25T21:08:13.467Z,60.80
2023-01-25T21:11:21.226Z,78.80
2023-01-25T21:14:28.453Z,92.00
2023-01-25T21:17:36.246Z,58.10
2023-01-25T21:20:43.799Z,79.80
2023-01-25T21:23:51.164Z,53.60
2023-01-25T21:26:59.029Z,57.10
2023-01-25T21:30:06.477Z,51.50
2023-01-25T21:33:13.711Z,59.60
2023-01-25T21:36:21.458Z,52.90
2023-01-25T21:39:28.962Z,55.40
2023-01-25T21:42:36.387Z,45.90
2023-01-25T21:45:43.772Z,45.80
2023-01-25T21:48:51.522Z,45.90
2023-01-25T21:51:58.940Z,44.30
2023-01-25T21:55:06.283Z,38.80
2023-01-25T21:58:14.341Z,38.90
2023-01-25T22:01:21.505Z,37.30
2023-01-25T22:04:29.324Z,39.20
2023-01-25T22:07:37.128Z,42.60
2023-01-25T22:10:44.655Z,42.60
2023-01-25T22:13:52.171Z,37.50
2023-01-25T22:16:59.780Z,57.90
2023-01-25T22:20:06.960Z,47.80
2023-01-25T22:23:14.727Z,47.30
2023-01-25T22:26:22.183Z,41.50
2023-01-25T22:29:29.624Z,41.80
2023-01-25T22:32:37.237Z,42.70
2023-01-25T22:35:45.402Z,39.00
2023-01-25T22:38:53.355Z,34.80
2023-01-25T22:42:00.477Z,38.00
2023-01-25T22:45:08.217Z,40.10
2023-01-25T22:48:15.936Z,36.60
2023-01-25T22:51:25.323Z,37.40
2023-01-25T22:54:33.102Z,37.80
2023-01-25T22:57:40.670Z,37.40
2023-01-25T23:00:48.490Z,34.50
2023-01-25T23:03:56.453Z,33.80
2023-01-25T23:07:03.939Z,31.40
2023-01-25T23:10:11.244Z,32.50
2023-01-25T23:13:18.907Z,33.40
2023-01-25T23:16:26.343Z,31.00
2023-01-25T23:19:33.388Z,31.50
2023-01-25T23:22:41.358Z,29.90
2023-01-25T23:25:48.689Z,32.50
2023-01-25T23:28:55.919Z,33.10
2023-01-25T23:32:03.547Z,35.70
2023-01-25T23:35:10.876Z,36.40
2023-01-25T23:38:18.421Z,32.90
2023-01-25T23:41:26.609Z,35.20
2023-01-25T23:44:34.200Z,29.50
2023-01-25T23:47:41.767Z,31.00
2023-01-25T23:50:49.003Z,27.70
2023-01-25T23:53:56.823Z,30.40
2023-01-25T23:57:03.965Z,31.80
